createdAt,value
2019-06-20T00:02:08.745Z,99.90
2019-06-20T00:05:08.492Z,99.90
2019-06-20T00:08:33.960Z,99.90
2019-06-20T00:11:08.554Z,99.90
2019-06-20T00:14:05.496Z,99.90
2019-06-20T00:16:55.337Z,99.90
2019-06-20T00:19:44.732Z,99.90
2019-06-20T00:22:34.708Z,99.90
2019-06-20T00:25:31.605Z,99.90
2019-06-20T00:28:32.324Z,99.90
2019-06-20T00:31:20.429Z,99.90
2019-06-20T00:34:31.999Z,99.90
2019-06-20T00:37:15.381Z,99.90
2019-06-20T00:40:01.238Z,99.90
2019-06-20T00:42:50.345Z,99.90
2019-06-20T00:45:47.136Z,99.90
2019-06-20T00:51:51.171Z,99.90
2019-06-20T01:02:25.269Z,99.90
2019-06-20T01:12:28.610Z,99.90
2019-06-20T01:23:19.647Z,99.90
2019-06-20T01:26:15.603Z,99.90
2019-06-20T01:32:36.300Z,99.90
2019-06-20T01:35:21.721Z,99.90
2019-06-20T01:38:06.026Z,99.90
2019-06-20T01:40:51.584Z,99.90
2019-06-20T01:43:49.493Z,99.90
2019-06-20T01:46:25.776Z,99.90
2019-06-20T01:49:31.837Z,99.90
2019-06-20T01:52:14.082Z,99.90
2019-06-20T01:55:09.970Z,99.90
2019-06-20T02:01:16.313Z,99.90
2019-06-20T02:03:59.556Z,99.90
2019-06-20T02:06:53.561Z,99.90
2019-06-20T02:09:49.995Z,99.90
2019-06-20T02:12:51.093Z,99.90
2019-06-20T02:15:35.436Z,99.90
2019-06-20T02:18:26.027Z,99.90
2019-06-20T02:21:08.028Z,99.90
2019-06-20T02:24:03.667Z,99.90
2019-06-20T02:26:52.638Z,99.90
2019-06-20T02:29:45.599Z,99.90
2019-06-20T02:32:38.703Z,99.90
2019-06-20T02:35:32.626Z,99.90
2019-06-20T02:38:22.097Z,99.90
2019-06-20T02:41:13.626Z,99.90
2019-06-20T02:44:01.435Z,99.90
2019-06-20T02:46:46.436Z,99.90
2019-06-20T02:49:36.987Z,99.90
2019-06-20T02:52:23.807Z,99.90
2019-06-20T02:55:19.516Z,99.90
2019-06-20T02:58:12.466Z,99.90
2019-06-20T03:01:22.335Z,99.90
2019-06-20T03:04:07.257Z,99.90
2019-06-20T03:06:55.620Z,99.90
2019-06-20T03:09:42.026Z,99.90
2019-06-20T03:12:33.418Z,99.90
2019-06-20T03:15:17.295Z,99.90
2019-06-20T03:18:05.353Z,99.90
2019-06-20T03:20:50.023Z,99.90
2019-06-20T03:23:33.998Z,99.90
2019-06-20T03:26:31.953Z,99.90
2019-06-20T03:29:15.468Z,99.90
2019-06-20T03:32:16.116Z,99.90
2019-06-20T03:35:01.019Z,99.90
2019-06-20T03:37:51.238Z,99.90
2019-06-20T03:40:43.535Z,99.90
2019-06-20T03:43:30.786Z,99.90
2019-06-20T03:46:21.083Z,99.90
2019-06-20T03:49:22.594Z,99.90
2019-06-20T03:52:14.628Z,99.90
2019-06-20T03:55:14.482Z,99.90
2019-06-20T03:58:07.586Z,99.90
2019-06-20T04:00:53.333Z,99.90
2019-06-20T04:03:58.587Z,99.90
2019-06-20T04:06:52.842Z,99.90
2019-06-20T04:09:52.677Z,99.90
2019-06-20T04:12:36.567Z,99.90
2019-06-20T04:15:26.080Z,99.90
2019-06-20T04:18:27.330Z,99.90
2019-06-20T04:24:29.924Z,99.90
2019-06-20T04:27:13.729Z,99.90
2019-06-20T04:30:10.579Z,99.90
2019-06-20T04:32:56.529Z,99.90
2019-06-20T04:35:43.713Z,99.90
2019-06-20T04:38:49.946Z,99.90
2019-06-20T04:41:35.707Z,99.90
2019-06-20T04:44:27.074Z,99.90
2019-06-20T04:47:09.925Z,99.90
2019-06-20T04:50:00.493Z,99.90
2019-06-20T04:52:39.810Z,99.90
2019-06-20T04:55:25.245Z,99.90
2019-06-20T04:58:10.378Z,99.90
2019-06-20T05:00:48.207Z,99.90
2019-06-20T05:03:25.999Z,99.90
2019-06-20T05:06:03.758Z,99.90
2019-06-20T05:08:41.606Z,99.90
2019-06-20T05:11:24.950Z,99.90
2019-06-20T05:14:02.762Z,99.90
2019-06-20T05:16:42.350Z,99.90
2019-06-20T05:19:22.167Z,99.90
2019-06-20T05:21:59.991Z,99.90
2019-06-20T05:24:37.836Z,99.90
2019-06-20T05:27:15.828Z,99.90
2019-06-20T05:29:54.344Z,99.90
2019-06-20T05:32:32.477Z,99.90
2019-06-20T05:35:10.504Z,99.90
2019-06-20T05:37:50.096Z,99.90
2019-06-20T05:40:37.291Z,99.90
2019-06-20T05:43:15.219Z,99.90
2019-06-20T05:46:08.388Z,99.90
2019-06-20T05:48:32.424Z,99.90
2019-06-20T05:51:11.553Z,99.90
2019-06-20T05:53:52.485Z,99.90
2019-06-20T05:56:30.230Z,99.90
2019-06-20T05:59:08.751Z,99.90
2019-06-20T06:01:46.996Z,99.90
2019-06-20T06:04:24.783Z,99.90
2019-06-20T06:07:02.633Z,99.90
2019-06-20T06:09:40.266Z,99.50
2019-06-20T06:12:18.059Z,99.30
2019-06-20T06:14:56.357Z,99.10
2019-06-20T06:17:34.259Z,99.90
2019-06-20T06:20:11.964Z,99.90
2019-06-20T06:22:49.620Z,98.90
2019-06-20T06:25:31.992Z,99.30
2019-06-20T06:28:12.397Z,98.00
2019-06-20T06:30:49.413Z,98.80
2019-06-20T06:33:27.104Z,98.70
2019-06-20T06:36:05.138Z,99.30
2019-06-20T06:38:43.108Z,98.90
2019-06-20T06:41:20.962Z,98.70
2019-06-20T06:43:59.694Z,99.10
2019-06-20T06:46:45.894Z,99.00
2019-06-20T06:49:17.486Z,98.50
2019-06-20T06:51:57.604Z,98.30
2019-06-20T06:54:35.504Z,97.20
2019-06-20T06:57:13.869Z,97.00
2019-06-20T06:59:51.658Z,97.50
2019-06-20T07:02:29.423Z,97.90
2019-06-20T07:05:07.453Z,98.30
2019-06-20T07:07:45.192Z,97.50
2019-06-20T07:10:24.983Z,97.30
2019-06-20T07:13:04.325Z,97.10
2019-06-20T07:15:42.069Z,97.40
2019-06-20T07:18:19.832Z,97.40
2019-06-20T07:20:59.907Z,97.10
2019-06-20T07:23:50.716Z,96.10
2019-06-20T07:26:31.009Z,95.60
2019-06-20T07:29:10.020Z,94.20
2019-06-20T07:31:47.842Z,93.40
2019-06-20T07:34:28.392Z,93.50
2019-06-20T07:37:09.025Z,94.60
2019-06-20T07:39:46.742Z,94.50
2019-06-20T07:42:26.591Z,94.30
2019-06-20T07:45:07.548Z,94.10
2019-06-20T07:47:47.461Z,95.00
2019-06-20T07:50:26.462Z,94.80
2019-06-20T07:53:05.596Z,94.50
2019-06-20T07:55:44.435Z,94.10
2019-06-20T07:58:22.136Z,93.40
2019-06-20T08:00:59.820Z,93.70
2019-06-20T08:03:38.633Z,93.90
2019-06-20T08:06:19.498Z,94.50
2019-06-20T08:08:57.398Z,93.00
2019-06-20T08:11:36.780Z,92.90
2019-06-20T08:14:14.492Z,92.20
2019-06-20T08:16:54.181Z,91.10
2019-06-20T08:19:31.602Z,86.10
2019-06-20T08:22:09.111Z,81.20
2019-06-20T08:24:46.573Z,78.20
2019-06-20T08:27:25.650Z,76.10
2019-06-20T08:30:05.073Z,72.70
2019-06-20T08:32:42.554Z,68.80
2019-06-20T08:35:24.584Z,64.60
2019-06-20T08:38:05.786Z,61.90
2019-06-20T08:40:43.889Z,64.20
2019-06-20T08:43:22.057Z,63.60
2019-06-20T08:45:59.565Z,66.40
2019-06-20T08:48:40.051Z,65.70
2019-06-20T08:51:17.575Z,66.30
2019-06-20T08:53:56.234Z,67.20
2019-06-20T08:56:47.990Z,66.50
2019-06-20T08:59:26.776Z,65.20
2019-06-20T09:02:06.659Z,59.90
2019-06-20T09:04:44.709Z,56.50
2019-06-20T09:07:22.287Z,56.60
2019-06-20T09:09:59.881Z,54.20
2019-06-20T09:12:39.321Z,52.40
2019-06-20T09:15:17.152Z,49.10
2019-06-20T09:17:55.226Z,48.50
2019-06-20T09:20:37.144Z,47.30
2019-06-20T09:23:14.585Z,45.60
2019-06-20T09:25:52.350Z,47.00
2019-06-20T09:28:29.823Z,49.00
2019-06-20T09:31:07.347Z,50.80
2019-06-20T09:33:44.870Z,51.60
2019-06-20T09:36:22.939Z,50.90
2019-06-20T09:39:00.399Z,50.70
2019-06-20T09:41:38.165Z,49.70
2019-06-20T09:44:15.564Z,51.00
2019-06-20T09:46:56.347Z,53.00
2019-06-20T09:49:33.864Z,57.20
2019-06-20T09:52:11.283Z,54.90
2019-06-20T09:54:50.115Z,54.90
2019-06-20T09:57:27.651Z,54.50
2019-06-20T10:00:10.920Z,54.70
2019-06-20T10:02:49.995Z,55.20
2019-06-20T10:05:27.621Z,55.10
2019-06-20T10:08:05.054Z,54.80
2019-06-20T10:10:42.528Z,55.30
2019-06-20T10:13:19.956Z,55.50
2019-06-20T10:15:57.422Z,55.20
2019-06-20T10:18:35.517Z,56.00
2019-06-20T10:21:15.367Z,56.80
2019-06-20T10:23:53.880Z,55.10
2019-06-20T10:26:31.433Z,54.10
2019-06-20T10:29:08.785Z,54.60
2019-06-20T10:31:47.398Z,54.50
2019-06-20T10:34:25.317Z,53.90
2019-06-20T10:37:04.385Z,54.00
2019-06-20T10:39:41.876Z,55.00
2019-06-20T10:42:19.550Z,55.80
2019-06-20T10:44:57.079Z,55.70
2019-06-20T10:47:36.119Z,56.00
2019-06-20T10:50:13.907Z,54.70
2019-06-20T10:52:51.930Z,53.10
2019-06-20T10:55:29.420Z,54.50
2019-06-20T10:58:06.806Z,53.00
2019-06-20T11:01:00.547Z,52.60
2019-06-20T11:03:37.621Z,50.80
2019-06-20T11:06:15.080Z,50.70
2019-06-20T11:08:52.600Z,50.00
2019-06-20T11:11:30.020Z,50.40
2019-06-20T11:14:09.065Z,50.20
2019-06-20T11:16:49.290Z,50.50
2019-06-20T11:19:26.690Z,51.20
2019-06-20T11:22:04.101Z,51.50
2019-06-20T11:24:42.912Z,52.20
2019-06-20T11:27:20.441Z,49.90
2019-06-20T11:29:57.901Z,50.80
2019-06-20T11:32:36.635Z,50.20
2019-06-20T11:35:14.297Z,50.10
2019-06-20T11:37:51.684Z,49.80
2019-06-20T11:40:29.216Z,50.30
2019-06-20T11:43:06.920Z,50.90
2019-06-20T11:45:44.814Z,50.10
2019-06-20T11:48:29.601Z,48.80
2019-06-20T11:51:07.014Z,48.90
2019-06-20T11:53:44.407Z,48.30
2019-06-20T11:56:21.771Z,48.10
2019-06-20T11:58:59.244Z,49.20
2019-06-20T12:01:39.545Z,50.60
2019-06-20T12:04:17.431Z,51.20
2019-06-20T12:06:54.978Z,51.60
2019-06-20T12:09:32.404Z,49.60
2019-06-20T12:12:09.805Z,49.50
2019-06-20T12:14:48.525Z,49.70
2019-06-20T12:17:25.999Z,50.90
2019-06-20T12:20:05.428Z,49.40
2019-06-20T12:22:43.259Z,48.40
2019-06-20T12:25:23.861Z,47.50
2019-06-20T12:28:01.674Z,47.60
2019-06-20T12:30:40.179Z,47.90
2019-06-20T12:33:19.711Z,47.70
2019-06-20T12:35:57.913Z,47.40
2019-06-20T12:38:38.100Z,46.80
2019-06-20T12:41:16.602Z,46.50
2019-06-20T12:43:55.374Z,48.10
2019-06-20T12:46:33.171Z,48.40
2019-06-20T12:49:12.509Z,48.70
2019-06-20T12:51:50.519Z,47.30
2019-06-20T12:54:30.211Z,46.80
2019-06-20T12:57:09.951Z,46.80
2019-06-20T12:59:48.294Z,46.60
2019-06-20T13:02:26.766Z,47.90
2019-06-20T13:05:05.841Z,47.70
2019-06-20T13:07:46.818Z,46.60
2019-06-20T13:10:24.489Z,46.90
2019-06-20T13:13:03.099Z,47.70
2019-06-20T13:15:50.828Z,47.30
2019-06-20T13:18:36.369Z,47.60
2019-06-20T13:21:15.051Z,49.10
2019-06-20T13:23:58.912Z,49.90
2019-06-20T13:26:43.876Z,49.70
2019-06-20T13:29:30.669Z,49.90
2019-06-20T13:32:21.327Z,49.10
2019-06-20T13:35:10.477Z,49.60
2019-06-20T13:37:52.252Z,50.70
2019-06-20T13:40:29.713Z,52.60
2019-06-20T13:43:07.159Z,52.50
2019-06-20T13:45:44.848Z,53.60
2019-06-20T13:48:24.205Z,55.20
2019-06-20T13:51:01.796Z,56.00
2019-06-20T13:53:40.606Z,56.10
2019-06-20T13:56:18.203Z,55.40
2019-06-20T13:58:57.728Z,56.80
2019-06-20T14:01:35.188Z,59.10
2019-06-20T14:04:13.475Z,58.20
2019-06-20T14:06:50.963Z,56.90
2019-06-20T14:09:28.372Z,57.00
2019-06-20T14:12:05.803Z,57.60
2019-06-20T14:14:45.790Z,57.10
2019-06-20T14:17:23.262Z,57.80
2019-06-20T14:20:00.702Z,57.50
2019-06-20T14:22:38.184Z,56.60
2019-06-20T14:25:15.688Z,58.30
2019-06-20T14:27:53.878Z,57.70
2019-06-20T14:30:31.359Z,57.20
2019-06-20T14:33:08.777Z,57.80
2019-06-20T14:35:47.503Z,58.60
2019-06-20T14:38:26.380Z,59.20
2019-06-20T14:41:03.745Z,59.60
2019-06-20T14:43:42.784Z,61.00
2019-06-20T14:46:23.290Z,62.90
2019-06-20T14:49:02.309Z,62.50
2019-06-20T14:51:39.789Z,62.90
2019-06-20T14:54:19.652Z,62.70
2019-06-20T14:56:58.286Z,64.20
2019-06-20T14:59:35.594Z,64.40
2019-06-20T15:02:13.275Z,65.00
2019-06-20T15:04:52.578Z,66.00
2019-06-20T15:07:31.395Z,67.30
2019-06-20T15:10:09.125Z,68.60
2019-06-20T15:12:48.364Z,69.30
2019-06-20T15:15:26.050Z,70.10
2019-06-20T15:18:03.730Z,70.00
2019-06-20T15:20:41.438Z,69.90
2019-06-20T15:23:19.693Z,69.90
2019-06-20T15:25:58.920Z,69.80
2019-06-20T15:28:36.596Z,70.50
2019-06-20T15:31:14.770Z,71.30
2019-06-20T15:33:53.348Z,71.10
2019-06-20T15:36:31.177Z,72.30
2019-06-20T15:39:09.080Z,72.60
2019-06-20T15:41:48.181Z,73.10
2019-06-20T15:44:26.038Z,73.70
2019-06-20T15:47:03.711Z,74.20
2019-06-20T15:49:41.410Z,74.20
2019-06-20T15:52:19.083Z,74.70
2019-06-20T15:54:56.780Z,74.80
2019-06-20T15:57:34.420Z,74.70
2019-06-20T16:00:13.746Z,75.20
2019-06-20T16:02:51.444Z,74.90
2019-06-20T16:05:29.150Z,75.00
2019-06-20T16:08:08.170Z,75.00
2019-06-20T16:10:45.862Z,75.90
2019-06-20T16:13:23.768Z,76.70
2019-06-20T16:16:02.655Z,76.60
2019-06-20T16:18:40.318Z,77.70
2019-06-20T16:21:18.044Z,77.50
2019-06-20T16:23:56.028Z,78.30
2019-06-20T16:26:34.923Z,78.90
2019-06-20T16:29:12.638Z,78.60
2019-06-20T16:31:50.385Z,79.30
2019-06-20T16:34:28.272Z,79.50
2019-06-20T16:37:09.977Z,80.20
2019-06-20T16:39:45.925Z,80.10
2019-06-20T16:42:23.650Z,80.70
2019-06-20T16:45:01.929Z,81.10
2019-06-20T16:47:39.949Z,81.20
2019-06-20T16:50:17.847Z,81.50
2019-06-20T16:52:55.795Z,81.60
2019-06-20T16:55:33.536Z,81.80
2019-06-20T16:58:11.343Z,82.70
2019-06-20T17:00:49.600Z,82.90
2019-06-20T17:03:40.696Z,83.20
2019-06-20T17:06:08.304Z,84.20
2019-06-20T17:08:49.453Z,84.20
2019-06-20T17:11:27.156Z,84.60
2019-06-20T17:14:05.650Z,85.20
2019-06-20T17:16:43.358Z,85.00
2019-06-20T17:19:21.054Z,85.50
2019-06-20T17:21:58.744Z,84.60
2019-06-20T17:24:36.419Z,86.50
2019-06-20T17:27:14.467Z,86.60
2019-06-20T17:29:52.310Z,86.60
2019-06-20T17:32:29.967Z,88.30
2019-06-20T17:35:08.019Z,88.20
2019-06-20T17:37:46.688Z,89.00
2019-06-20T17:40:25.666Z,90.10
2019-06-20T17:43:03.358Z,90.00
2019-06-20T17:45:41.056Z,90.70
2019-06-20T17:48:21.360Z,91.00
2019-06-20T17:50:59.427Z,90.00
2019-06-20T17:53:40.187Z,90.60
2019-06-20T17:56:20.103Z,88.90
2019-06-20T17:58:57.812Z,89.70
2019-06-20T18:01:39.528Z,90.40
2019-06-20T18:04:17.269Z,90.90
2019-06-20T18:06:55.489Z,90.80
2019-06-20T18:09:34.358Z,90.50
2019-06-20T18:12:12.213Z,90.50
2019-06-20T18:14:50.003Z,90.80
2019-06-20T18:17:28.304Z,91.00
2019-06-20T18:20:06.458Z,91.10
2019-06-20T18:22:46.787Z,92.20
2019-06-20T18:25:24.916Z,91.60
2019-06-20T18:28:03.985Z,91.90
2019-06-20T18:30:44.007Z,92.10
2019-06-20T18:33:21.739Z,92.40
2019-06-20T18:36:01.112Z,92.40
2019-06-20T18:38:38.935Z,92.90
2019-06-20T18:41:16.662Z,92.50
2019-06-20T18:43:54.412Z,92.90
2019-06-20T18:46:32.125Z,93.20
2019-06-20T18:49:09.921Z,93.20
2019-06-20T18:51:50.681Z,93.50
2019-06-20T18:54:28.378Z,93.80
2019-06-20T18:57:06.062Z,94.00
2019-06-20T18:59:43.811Z,94.40
2019-06-20T19:02:21.597Z,94.70
2019-06-20T19:04:59.278Z,95.00
2019-06-20T19:07:36.977Z,95.30
2019-06-20T19:10:14.712Z,95.70
2019-06-20T19:13:12.889Z,96.00
2019-06-20T19:15:48.894Z,96.30
2019-06-20T19:19:00.381Z,96.60
2019-06-20T19:21:38.612Z,96.90
2019-06-20T19:24:16.346Z,97.20
2019-06-20T19:26:53.938Z,97.40
2019-06-20T19:29:33.047Z,97.60
2019-06-20T19:32:10.762Z,97.90
2019-06-20T19:35:01.274Z,98.30
2019-06-20T19:37:29.409Z,98.50
2019-06-20T19:40:11.614Z,98.90
2019-06-20T19:42:49.311Z,99.20
2019-06-20T19:45:27.050Z,99.40
2019-06-20T19:48:04.831Z,99.70
2019-06-20T19:50:42.956Z,99.90
2019-06-20T19:53:20.690Z,99.90
2019-06-20T19:56:00.951Z,99.90
2019-06-20T19:59:09.541Z,99.90
2019-06-20T20:01:51.341Z,99.90
2019-06-20T20:04:30.116Z,99.90
2019-06-20T20:07:07.877Z,99.90
2019-06-20T20:09:51.078Z,99.90
2019-06-20T20:12:31.158Z,99.90
2019-06-20T20:15:08.880Z,99.90
2019-06-20T20:17:46.583Z,99.90
2019-06-20T20:20:24.348Z,99.90
2019-06-20T20:23:03.083Z,99.90
2019-06-20T20:25:40.964Z,99.90
2019-06-20T20:28:18.718Z,99.90
2019-06-20T20:30:56.377Z,99.90
2019-06-20T20:33:34.225Z,99.90
2019-06-20T20:36:24.346Z,99.90
2019-06-20T20:38:52.509Z,99.90
2019-06-20T20:41:30.204Z,99.90
2019-06-20T20:44:21.024Z,99.90
2019-06-20T20:46:55.079Z,99.90
2019-06-20T20:49:35.163Z,99.90
2019-06-20T20:52:13.361Z,99.90
2019-06-20T20:54:51.294Z,99.90
2019-06-20T20:57:29.003Z,99.90
2019-06-20T21:00:13.446Z,99.90
2019-06-20T21:02:58.215Z,99.90
2019-06-20T21:05:52.283Z,99.90
2019-06-20T21:08:38.966Z,99.90
2019-06-20T21:11:26.082Z,99.90
2019-06-20T21:14:15.890Z,99.90
2019-06-20T21:16:57.648Z,99.90
2019-06-20T21:19:47.897Z,99.90
2019-06-20T21:22:37.718Z,99.90
2019-06-20T21:25:36.039Z,99.90
2019-06-20T21:28:16.813Z,99.90
2019-06-20T21:30:56.117Z,99.90
2019-06-20T21:33:45.746Z,99.90
2019-06-20T21:36:24.356Z,99.90
2019-06-20T21:39:10.258Z,99.90
2019-06-20T21:41:54.702Z,99.90
2019-06-20T21:44:40.181Z,99.90
2019-06-20T21:47:23.918Z,99.90
2019-06-20T21:50:17.180Z,99.90
2019-06-20T21:52:56.093Z,99.90
2019-06-20T21:55:39.785Z,99.90
2019-06-20T21:58:29.824Z,99.90
2019-06-20T22:01:15.438Z,99.90
2019-06-20T22:04:05.504Z,99.90
2019-06-20T22:06:40.193Z,99.90
2019-06-20T22:09:35.093Z,99.90
2019-06-20T22:12:15.449Z,99.90
2019-06-20T22:15:09.719Z,99.90
2019-06-20T22:18:03.313Z,99.90
2019-06-20T22:20:52.054Z,99.90
2019-06-20T22:23:41.989Z,99.90
2019-06-20T22:26:23.992Z,99.90
2019-06-20T22:29:14.232Z,99.90
2019-06-20T22:31:58.181Z,99.90
2019-06-20T22:34:54.231Z,99.90
2019-06-20T22:37:58.603Z,99.90
2019-06-20T22:40:38.247Z,99.90
2019-06-20T22:43:20.377Z,99.90
2019-06-20T22:46:12.250Z,99.90
2019-06-20T22:49:04.261Z,99.90
2019-06-20T22:51:47.519Z,99.90
2019-06-20T22:54:38.234Z,99.90
2019-06-20T22:57:31.762Z,99.90
2019-06-20T23:00:17.406Z,99.90
2019-06-20T23:02:57.492Z,99.90
2019-06-20T23:05:48.913Z,99.90
2019-06-20T23:08:27.448Z,99.90
2019-06-20T23:11:07.452Z,99.90
2019-06-20T23:13:53.838Z,99.90
2019-06-20T23:16:35.269Z,99.90
2019-06-20T23:19:16.047Z,99.90
2019-06-20T23:22:03.585Z,99.90
2019-06-20T23:24:49.788Z,99.90
2019-06-20T23:27:37.624Z,99.90
2019-06-20T23:30:15.911Z,99.90
2019-06-20T23:33:00.967Z,99.90
2019-06-20T23:35:46.319Z,99.90
2019-06-20T23:38:31.544Z,99.90
2019-06-20T23:41:15.891Z,99.90
2019-06-20T23:43:57.420Z,99.90
2019-06-20T23:46:42.132Z,99.90
2019-06-20T23:49:21.900Z,99.90
2019-06-20T23:52:05.993Z,99.90
2019-06-20T23:54:47.503Z,99.90
2019-06-20T23:57:41.409Z,99.90
